sensor_id;sensor_type;location;lat;lon;timestamp;P1;durP1;ratioP1;P2;durP2;ratioP2
11679;SDS011;5896;42.686;23.142;2024-01-15T00:01:07;5.72;;;2.80;;
11679;SDS011;5896;42.686;23.142;2024-01-15T00:03:32;7.00;;;2.70;;
11679;SDS011;5896;42.686;23.142;2024-01-15T00:05:58;9.25;;;4.18;;
11679;SDS011;5896;42.686;23.142;2024-01-15T00:08:23;6.20;;;3.30;;
11679;SDS011;5896;42.686;23.142;2024-01-15T00:10:49;9.13;;;5.10;;
11679;SDS011;5896;42.686;23.142;2024-01-15T00:13:14;6.60;;;3.47;;
11679;SDS011;5896;42.686;23.142;2024-01-15T00:15:39;7.90;;;3.08;;
11679;SDS011;5896;42.686;23.142;2024-01-15T00:18:05;11.07;;;3.70;;
11679;SDS011;5896;42.686;23.142;2024-01-15T00:20:30;8.63;;;2.67;;
11679;SDS011;5896;42.686;23.142;2024-01-15T00:22:56;12.32;;;4.43;;
11679;SDS011;5896;42.686;23.142;2024-01-15T00:25:21;10.73;;;4.20;;
11679;SDS011;5896;42.686;23.142;2024-01-15T00:27:47;10.15;;;4.43;;
11679;SDS011;5896;42.686;23.142;2024-01-15T00:30:13;8.32;;;3.13;;
11679;SDS011;5896;42.686;23.142;2024-01-15T00:32:38;6.50;;;3.15;;
11679;SDS011;5896;42.686;23.142;2024-01-15T00:35:04;8.63;;;4.25;;
11679;SDS011;5896;42.686;23.142;2024-01-15T00:37:29;7.43;;;3.58;;
11679;SDS011;5896;42.686;23.142;2024-01-15T00:39:55;6.18;;;2.60;;
11679;SDS011;5896;42.686;23.142;2024-01-15T00:42:20;8.65;;;3.67;;
11679;SDS011;5896;42.686;23.142;2024-01-15T00:44:46;8.18;;;4.20;;
11679;SDS011;5896;42.686;23.142;2024-01-15T00:47:11;9.82;;;5.00;;
11679;SDS011;5896;42.686;23.142;2024-01-15T00:49:37;8.68;;;4.03;;
11679;SDS011;5896;42.686;23.142;2024-01-15T00:52:02;7.45;;;2.90;;
11679;SDS011;5896;42.686;23.142;2024-01-15T00:54:28;8.95;;;4.50;;
11679;SDS011;5896;42.686;23.142;2024-01-15T00:56:53;8.77;;;3.90;;
11679;SDS011;5896;42.686;23.142;2024-01-15T00:59:20;9.05;;;5.10;;
11679;SDS011;5896;42.686;23.142;2024-01-15T01:01:45;5.50;;;2.95;;
11679;SDS011;5896;42.686;23.142;2024-01-15T01:04:11;9.48;;;3.83;;
11679;SDS011;5896;42.686;23.142;2024-01-15T01:06:37;5.63;;;2.28;;
11679;SDS011;5896;42.686;23.142;2024-01-15T01:09:02;10.43;;;3.72;;
11679;SDS011;5896;42.686;23.142;2024-01-15T01:11:28;5.32;;;2.65;;
11679;SDS011;5896;42.686;23.142;2024-01-15T01:13:53;8.32;;;3.67;;
11679;SDS011;5896;42.686;23.142;2024-01-15T01:16:19;10.73;;;4.22;;
11679;SDS011;5896;42.686;23.142;2024-01-15T01:18:44;7.20;;;3.30;;
11679;SDS011;5896;42.686;23.142;2024-01-15T01:21:10;9.02;;;6.00;;
11679;SDS011;5896;42.686;23.142;2024-01-15T01:23:35;7.53;;;4.32;;
11679;SDS011;5896;42.686;23.142;2024-01-15T01:26:00;14.38;;;4.22;;
11679;SDS011;5896;42.686;23.142;2024-01-15T01:28:26;6.70;;;3.10;;
11679;SDS011;5896;42.686;23.142;2024-01-15T01:30:51;9.30;;;4.25;;
11679;SDS011;5896;42.686;23.142;2024-01-15T01:33:17;9.85;;;3.28;;
11679;SDS011;5896;42.686;23.142;2024-01-15T01:35:42;6.85;;;3.20;;
11679;SDS011;5896;42.686;23.142;2024-01-15T01:38:08;5.85;;;3.42;;
11679;SDS011;5896;42.686;23.142;2024-01-15T01:40:34;10.93;;;3.53;;
11679;SDS011;5896;42.686;23.142;2024-01-15T01:42:59;7.78;;;2.38;;
11679;SDS011;5896;42.686;23.142;2024-01-15T01:45:24;9.57;;;4.22;;
11679;SDS011;5896;42.686;23.142;2024-01-15T01:47:50;10.73;;;3.00;;
11679;SDS011;5896;42.686;23.142;2024-01-15T01:50:16;2.08;;;1.13;;
11679;SDS011;5896;42.686;23.142;2024-01-15T01:52:41;6.78;;;2.97;;
11679;SDS011;5896;42.686;23.142;2024-01-15T01:55:07;4.10;;;1.55;;
11679;SDS011;5896;42.686;23.142;2024-01-15T01:57:36;7.30;;;3.30;;
11679;SDS011;5896;42.686;23.142;2024-01-15T02:00:02;7.57;;;3.92;;
11679;SDS011;5896;42.686;23.142;2024-01-15T02:02:29;6.50;;;3.15;;
11679;SDS011;5896;42.686;23.142;2024-01-15T02:04:56;5.57;;;3.13;;
11679;SDS011;5896;42.686;23.142;2024-01-15T02:07:21;7.57;;;4.05;;
11679;SDS011;5896;42.686;23.142;2024-01-15T02:09:47;5.72;;;3.22;;
11679;SDS011;5896;42.686;23.142;2024-01-15T02:12:14;10.35;;;4.65;;
11679;SDS011;5896;42.686;23.142;2024-01-15T02:14:39;11.65;;;3.85;;
11679;SDS011;5896;42.686;23.142;2024-01-15T02:17:05;5.07;;;1.77;;
11679;SDS011;5896;42.686;23.142;2024-01-15T02:19:31;1.98;;;0.98;;
11679;SDS011;5896;42.686;23.142;2024-01-15T02:21:56;5.18;;;1.30;;
11679;SDS011;5896;42.686;23.142;2024-01-15T02:24:22;4.60;;;1.90;;
11679;SDS011;5896;42.686;23.142;2024-01-15T02:26:48;4.30;;;1.63;;
11679;SDS011;5896;42.686;23.142;2024-01-15T02:29:13;2.20;;;1.20;;
11679;SDS011;5896;42.686;23.142;2024-01-15T02:31:40;5.38;;;2.25;;
11679;SDS011;5896;42.686;23.142;2024-01-15T02:34:05;2.05;;;1.50;;
11679;SDS011;5896;42.686;23.142;2024-01-15T02:36:30;4.20;;;1.83;;
11679;SDS011;5896;42.686;23.142;2024-01-15T02:38:56;5.32;;;1.67;;
11679;SDS011;5896;42.686;23.142;2024-01-15T02:41:21;2.35;;;1.17;;
11679;SDS011;5896;42.686;23.142;2024-01-15T02:43:47;3.33;;;1.85;;
11679;SDS011;5896;42.686;23.142;2024-01-15T02:46:12;7.95;;;3.17;;
11679;SDS011;5896;42.686;23.142;2024-01-15T02:48:38;1.95;;;1.27;;
11679;SDS011;5896;42.686;23.142;2024-01-15T02:51:03;4.32;;;1.35;;
11679;SDS011;5896;42.686;23.142;2024-01-15T02:53:29;5.47;;;2.50;;
11679;SDS011;5896;42.686;23.142;2024-01-15T02:55:54;6.20;;;2.65;;
11679;SDS011;5896;42.686;23.142;2024-01-15T02:58:19;6.93;;;4.45;;
11679;SDS011;5896;42.686;23.142;2024-01-15T03:00:45;3.37;;;1.80;;
11679;SDS011;5896;42.686;23.142;2024-01-15T03:03:11;4.32;;;1.95;;
11679;SDS011;5896;42.686;23.142;2024-01-15T03:05:36;5.95;;;3.03;;
11679;SDS011;5896;42.686;23.142;2024-01-15T03:08:02;6.88;;;3.40;;
11679;SDS011;5896;42.686;23.142;2024-01-15T03:10:27;7.50;;;3.58;;
11679;SDS011;5896;42.686;23.142;2024-01-15T03:12:53;6.55;;;3.25;;
11679;SDS011;5896;42.686;23.142;2024-01-15T03:15:18;4.22;;;1.42;;
11679;SDS011;5896;42.686;23.142;2024-01-15T03:17:44;9.20;;;2.28;;
11679;SDS011;5896;42.686;23.142;2024-01-15T03:20:10;2.58;;;0.85;;
11679;SDS011;5896;42.686;23.142;2024-01-15T03:22:36;2.92;;;1.42;;
11679;SDS011;5896;42.686;23.142;2024-01-15T03:25:01;4.68;;;2.10;;
11679;SDS011;5896;42.686;23.142;2024-01-15T03:27:26;11.20;;;5.00;;
11679;SDS011;5896;42.686;23.142;2024-01-15T03:29:52;11.98;;;4.25;;
11679;SDS011;5896;42.686;23.142;2024-01-15T03:32:17;3.97;;;1.55;;
11679;SDS011;5896;42.686;23.142;2024-01-15T03:34:44;9.70;;;3.70;;
11679;SDS011;5896;42.686;23.142;2024-01-15T03:37:10;8.90;;;4.13;;
11679;SDS011;5896;42.686;23.142;2024-01-15T03:39:36;7.00;;;2.55;;
11679;SDS011;5896;42.686;23.142;2024-01-15T03:42:01;12.25;;;6.03;;
11679;SDS011;5896;42.686;23.142;2024-01-15T03:44:27;14.07;;;5.72;;
11679;SDS011;5896;42.686;23.142;2024-01-15T03:46:52;13.70;;;6.80;;
11679;SDS011;5896;42.686;23.142;2024-01-15T03:49:17;20.20;;;8.00;;
11679;SDS011;5896;42.686;23.142;2024-01-15T03:51:43;21.50;;;8.07;;
11679;SDS011;5896;42.686;23.142;2024-01-15T03:54:08;9.30;;;4.10;;
11679;SDS011;5896;42.686;23.142;2024-01-15T03:56:33;6.90;;;4.70;;
11679;SDS011;5896;42.686;23.142;2024-01-15T03:58:59;22.65;;;9.68;;
11679;SDS011;5896;42.686;23.142;2024-01-15T04:01:24;21.17;;;7.57;;
11679;SDS011;5896;42.686;23.142;2024-01-15T04:03:49;18.55;;;7.80;;
11679;SDS011;5896;42.686;23.142;2024-01-15T04:06:15;18.05;;;7.40;;
11679;SDS011;5896;42.686;23.142;2024-01-15T04:08:40;12.05;;;5.70;;
11679;SDS011;5896;42.686;23.142;2024-01-15T04:11:05;15.63;;;6.00;;
11679;SDS011;5896;42.686;23.142;2024-01-15T04:13:34;15.10;;;5.63;;
11679;SDS011;5896;42.686;23.142;2024-01-15T04:15:59;1.40;;;0.95;;
11679;SDS011;5896;42.686;23.142;2024-01-15T04:18:25;15.68;;;7.32;;
11679;SDS011;5896;42.686;23.142;2024-01-15T04:20:50;16.35;;;6.35;;
11679;SDS011;5896;42.686;23.142;2024-01-15T04:23:16;14.23;;;5.22;;
11679;SDS011;5896;42.686;23.142;2024-01-15T04:25:41;11.02;;;5.72;;
11679;SDS011;5896;42.686;23.142;2024-01-15T04:28:08;10.40;;;5.13;;
11679;SDS011;5896;42.686;23.142;2024-01-15T04:30:34;13.05;;;5.70;;
11679;SDS011;5896;42.686;23.142;2024-01-15T04:32:59;14.30;;;6.22;;
11679;SDS011;5896;42.686;23.142;2024-01-15T04:35:24;11.30;;;5.47;;
11679;SDS011;5896;42.686;23.142;2024-01-15T04:37:50;5.80;;;4.72;;
11679;SDS011;5896;42.686;23.142;2024-01-15T04:40:15;13.77;;;6.18;;
11679;SDS011;5896;42.686;23.142;2024-01-15T04:42:40;9.73;;;4.85;;
11679;SDS011;5896;42.686;23.142;2024-01-15T04:45:06;2.63;;;1.02;;
11679;SDS011;5896;42.686;23.142;2024-01-15T04:47:31;7.13;;;2.70;;
11679;SDS011;5896;42.686;23.142;2024-01-15T04:49:57;8.40;;;2.88;;
11679;SDS011;5896;42.686;23.142;2024-01-15T04:52:22;5.38;;;2.47;;
11679;SDS011;5896;42.686;23.142;2024-01-15T04:54:48;8.07;;;2.83;;
11679;SDS011;5896;42.686;23.142;2024-01-15T04:57:14;2.70;;;0.88;;
11679;SDS011;5896;42.686;23.142;2024-01-15T04:59:40;4.93;;;2.58;;
11679;SDS011;5896;42.686;23.142;2024-01-15T05:02:05;4.35;;;1.77;;
11679;SDS011;5896;42.686;23.142;2024-01-15T05:04:30;7.55;;;1.67;;
11679;SDS011;5896;42.686;23.142;2024-01-15T05:06:56;7.80;;;2.35;;
11679;SDS011;5896;42.686;23.142;2024-01-15T05:09:21;5.53;;;2.05;;
11679;SDS011;5896;42.686;23.142;2024-01-15T05:11:47;7.53;;;2.08;;
11679;SDS011;5896;42.686;23.142;2024-01-15T05:14:12;4.47;;;0.77;;
11679;SDS011;5896;42.686;23.142;2024-01-15T05:16:38;6.45;;;3.17;;
11679;SDS011;5896;42.686;23.142;2024-01-15T05:19:04;11.93;;;5.03;;
11679;SDS011;5896;42.686;23.142;2024-01-15T05:21:29;14.50;;;6.53;;
11679;SDS011;5896;42.686;23.142;2024-01-15T05:23:55;21.90;;;9.05;;
11679;SDS011;5896;42.686;23.142;2024-01-15T05:26:20;16.33;;;6.22;;
11679;SDS011;5896;42.686;23.142;2024-01-15T05:28:45;8.82;;;4.20;;
11679;SDS011;5896;42.686;23.142;2024-01-15T05:31:11;24.75;;;9.55;;
11679;SDS011;5896;42.686;23.142;2024-01-15T05:33:36;27.58;;;12.23;;
11679;SDS011;5896;42.686;23.142;2024-01-15T05:36:02;13.10;;;5.22;;
11679;SDS011;5896;42.686;23.142;2024-01-15T05:38:28;8.05;;;3.30;;
11679;SDS011;5896;42.686;23.142;2024-01-15T05:40:53;19.95;;;6.68;;
11679;SDS011;5896;42.686;23.142;2024-01-15T05:43:18;15.38;;;6.88;;
11679;SDS011;5896;42.686;23.142;2024-01-15T05:45:44;7.18;;;2.08;;
11679;SDS011;5896;42.686;23.142;2024-01-15T05:48:09;14.73;;;6.35;;
11679;SDS011;5896;42.686;23.142;2024-01-15T05:50:35;10.18;;;4.55;;
11679;SDS011;5896;42.686;23.142;2024-01-15T05:53:01;22.83;;;7.05;;
11679;SDS011;5896;42.686;23.142;2024-01-15T05:55:27;8.50;;;4.03;;
11679;SDS011;5896;42.686;23.142;2024-01-15T05:57:53;19.80;;;5.95;;
11679;SDS011;5896;42.686;23.142;2024-01-15T06:00:18;14.43;;;6.95;;
11679;SDS011;5896;42.686;23.142;2024-01-15T06:02:43;12.18;;;5.90;;
11679;SDS011;5896;42.686;23.142;2024-01-15T06:05:09;4.03;;;1.83;;
11679;SDS011;5896;42.686;23.142;2024-01-15T06:07:34;19.48;;;8.70;;
11679;SDS011;5896;42.686;23.142;2024-01-15T06:10:00;10.27;;;4.35;;
11679;SDS011;5896;42.686;23.142;2024-01-15T06:12:26;7.70;;;3.63;;
11679;SDS011;5896;42.686;23.142;2024-01-15T06:14:53;20.00;;;7.10;;
11679;SDS011;5896;42.686;23.142;2024-01-15T06:17:18;19.13;;;8.15;;
11679;SDS011;5896;42.686;23.142;2024-01-15T06:19:44;7.65;;;4.00;;
11679;SDS011;5896;42.686;23.142;2024-01-15T06:22:09;4.85;;;2.35;;
11679;SDS011;5896;42.686;23.142;2024-01-15T06:24:35;11.88;;;4.70;;
11679;SDS011;5896;42.686;23.142;2024-01-15T06:27:00;9.73;;;5.03;;
11679;SDS011;5896;42.686;23.142;2024-01-15T06:29:26;13.57;;;5.63;;
11679;SDS011;5896;42.686;23.142;2024-01-15T06:31:52;20.77;;;6.55;;
11679;SDS011;5896;42.686;23.142;2024-01-15T06:34:17;16.70;;;7.78;;
11679;SDS011;5896;42.686;23.142;2024-01-15T06:36:43;12.38;;;3.92;;
11679;SDS011;5896;42.686;23.142;2024-01-15T06:39:08;4.25;;;1.80;;
11679;SDS011;5896;42.686;23.142;2024-01-15T06:41:35;3.33;;;1.65;;
11679;SDS011;5896;42.686;23.142;2024-01-15T06:44:06;4.03;;;1.42;;
11679;SDS011;5896;42.686;23.142;2024-01-15T06:46:31;7.28;;;3.03;;
11679;SDS011;5896;42.686;23.142;2024-01-15T06:48:57;3.70;;;1.50;;
11679;SDS011;5896;42.686;23.142;2024-01-15T06:51:22;8.82;;;2.97;;
11679;SDS011;5896;42.686;23.142;2024-01-15T06:53:48;14.10;;;6.03;;
11679;SDS011;5896;42.686;23.142;2024-01-15T06:56:13;2.83;;;1.05;;
11679;SDS011;5896;42.686;23.142;2024-01-15T06:58:38;2.33;;;1.25;;
11679;SDS011;5896;42.686;23.142;2024-01-15T07:01:04;16.27;;;7.85;;
11679;SDS011;5896;42.686;23.142;2024-01-15T07:03:29;26.25;;;10.98;;
11679;SDS011;5896;42.686;23.142;2024-01-15T07:05:55;19.25;;;8.07;;
11679;SDS011;5896;42.686;23.142;2024-01-15T07:08:20;10.52;;;4.45;;
11679;SDS011;5896;42.686;23.142;2024-01-15T07:10:45;9.50;;;5.15;;
11679;SDS011;5896;42.686;23.142;2024-01-15T07:13:11;13.15;;;5.50;;
11679;SDS011;5896;42.686;23.142;2024-01-15T07:15:36;7.80;;;3.20;;
11679;SDS011;5896;42.686;23.142;2024-01-15T07:18:01;4.00;;;1.85;;
11679;SDS011;5896;42.686;23.142;2024-01-15T07:20:27;3.40;;;1.33;;
11679;SDS011;5896;42.686;23.142;2024-01-15T07:22:52;1.98;;;0.63;;
11679;SDS011;5896;42.686;23.142;2024-01-15T07:25:18;3.97;;;2.03;;
11679;SDS011;5896;42.686;23.142;2024-01-15T07:27:43;7.70;;;1.73;;
11679;SDS011;5896;42.686;23.142;2024-01-15T07:30:10;4.78;;;2.33;;
11679;SDS011;5896;42.686;23.142;2024-01-15T07:32:36;5.22;;;2.35;;
11679;SDS011;5896;42.686;23.142;2024-01-15T07:35:02;2.20;;;0.60;;
11679;SDS011;5896;42.686;23.142;2024-01-15T07:37:27;3.85;;;0.98;;
11679;SDS011;5896;42.686;23.142;2024-01-15T07:39:53;2.38;;;1.17;;
11679;SDS011;5896;42.686;23.142;2024-01-15T07:42:18;14.57;;;5.75;;
11679;SDS011;5896;42.686;23.142;2024-01-15T07:44:44;11.75;;;6.07;;
11679;SDS011;5896;42.686;23.142;2024-01-15T07:47:10;4.82;;;2.00;;
11679;SDS011;5896;42.686;23.142;2024-01-15T07:49:35;3.95;;;1.42;;
11679;SDS011;5896;42.686;23.142;2024-01-15T07:52:00;3.20;;;1.80;;
11679;SDS011;5896;42.686;23.142;2024-01-15T07:54:26;3.40;;;1.20;;
11679;SDS011;5896;42.686;23.142;2024-01-15T07:56:55;3.88;;;1.52;;
11679;SDS011;5896;42.686;23.142;2024-01-15T07:59:29;3.45;;;1.55;;
11679;SDS011;5896;42.686;23.142;2024-01-15T08:01:55;0.75;;;0.50;;
11679;SDS011;5896;42.686;23.142;2024-01-15T08:04:20;1.95;;;0.70;;
11679;SDS011;5896;42.686;23.142;2024-01-15T08:06:49;4.05;;;1.38;;
11679;SDS011;5896;42.686;23.142;2024-01-15T08:09:15;1.92;;;0.65;;
11679;SDS011;5896;42.686;23.142;2024-01-15T08:11:40;9.63;;;4.20;;
11679;SDS011;5896;42.686;23.142;2024-01-15T08:14:07;10.10;;;4.07;;
11679;SDS011;5896;42.686;23.142;2024-01-15T08:16:32;2.53;;;1.17;;
11679;SDS011;5896;42.686;23.142;2024-01-15T08:18:58;6.82;;;3.22;;
11679;SDS011;5896;42.686;23.142;2024-01-15T08:21:23;2.28;;;0.70;;
11679;SDS011;5896;42.686;23.142;2024-01-15T08:23:49;10.55;;;4.97;;
11679;SDS011;5896;42.686;23.142;2024-01-15T08:26:14;14.02;;;6.47;;
11679;SDS011;5896;42.686;23.142;2024-01-15T08:28:40;25.05;;;10.27;;
11679;SDS011;5896;42.686;23.142;2024-01-15T08:31:05;22.67;;;9.95;;
11679;SDS011;5896;42.686;23.142;2024-01-15T08:33:30;21.45;;;8.90;;
11679;SDS011;5896;42.686;23.142;2024-01-15T08:35:56;14.85;;;6.40;;
11679;SDS011;5896;42.686;23.142;2024-01-15T08:38:21;18.48;;;8.77;;
11679;SDS011;5896;42.686;23.142;2024-01-15T08:40:47;20.45;;;8.68;;
11679;SDS011;5896;42.686;23.142;2024-01-15T08:43:14;25.00;;;9.35;;
11679;SDS011;5896;42.686;23.142;2024-01-15T08:45:40;23.80;;;9.23;;
11679;SDS011;5896;42.686;23.142;2024-01-15T08:48:05;23.63;;;10.27;;
11679;SDS011;5896;42.686;23.142;2024-01-15T08:50:31;30.60;;;8.52;;
11679;SDS011;5896;42.686;23.142;2024-01-15T08:52:58;22.25;;;8.35;;
11679;SDS011;5896;42.686;23.142;2024-01-15T08:55:23;21.23;;;8.35;;
11679;SDS011;5896;42.686;23.142;2024-01-15T08:57:49;9.15;;;6.82;;
11679;SDS011;5896;42.686;23.142;2024-01-15T09:00:14;6.00;;;2.50;;
11679;SDS011;5896;42.686;23.142;2024-01-15T09:02:40;11.82;;;4.07;;
11679;SDS011;5896;42.686;23.142;2024-01-15T09:05:07;4.80;;;1.42;;
11679;SDS011;5896;42.686;23.142;2024-01-15T09:07:32;3.75;;;1.73;;
11679;SDS011;5896;42.686;23.142;2024-01-15T09:09:58;7.00;;;2.33;;
11679;SDS011;5896;42.686;23.142;2024-01-15T09:12:26;2.75;;;0.80;;
11679;SDS011;5896;42.686;23.142;2024-01-15T09:14:54;1.55;;;0.70;;
11679;SDS011;5896;42.686;23.142;2024-01-15T09:17:20;4.13;;;1.30;;
11679;SDS011;5896;42.686;23.142;2024-01-15T09:19:48;1.40;;;0.57;;
11679;SDS011;5896;42.686;23.142;2024-01-15T09:22:14;2.22;;;1.02;;
11679;SDS011;5896;42.686;23.142;2024-01-15T09:24:42;2.10;;;1.00;;
11679;SDS011;5896;42.686;23.142;2024-01-15T09:27:07;2.42;;;1.08;;
11679;SDS011;5896;42.686;23.142;2024-01-15T09:29:33;4.18;;;1.50;;
11679;SDS011;5896;42.686;23.142;2024-01-15T09:31:58;5.18;;;1.70;;
11679;SDS011;5896;42.686;23.142;2024-01-15T09:34:23;2.90;;;1.48;;
11679;SDS011;5896;42.686;23.142;2024-01-15T09:36:49;7.15;;;1.67;;
11679;SDS011;5896;42.686;23.142;2024-01-15T09:39:14;3.70;;;2.05;;
11679;SDS011;5896;42.686;23.142;2024-01-15T09:41:40;4.00;;;1.55;;
11679;SDS011;5896;42.686;23.142;2024-01-15T09:44:06;4.22;;;2.28;;
11679;SDS011;5896;42.686;23.142;2024-01-15T09:46:33;4.20;;;2.42;;
11679;SDS011;5896;42.686;23.142;2024-01-15T09:48:59;2.45;;;1.52;;
11679;SDS011;5896;42.686;23.142;2024-01-15T09:51:26;10.68;;;2.80;;
11679;SDS011;5896;42.686;23.142;2024-01-15T09:53:55;4.00;;;1.02;;
11679;SDS011;5896;42.686;23.142;2024-01-15T09:56:22;3.67;;;1.52;;
11679;SDS011;5896;42.686;23.142;2024-01-15T09:58:48;2.58;;;1.48;;
11679;SDS011;5896;42.686;23.142;2024-01-15T10:01:14;7.32;;;2.53;;
11679;SDS011;5896;42.686;23.142;2024-01-15T10:03:42;2.17;;;0.95;;
11679;SDS011;5896;42.686;23.142;2024-01-15T10:06:07;3.60;;;1.15;;
11679;SDS011;5896;42.686;23.142;2024-01-15T10:08:34;2.70;;;1.60;;
11679;SDS011;5896;42.686;23.142;2024-01-15T10:11:02;5.75;;;1.65;;
11679;SDS011;5896;42.686;23.142;2024-01-15T10:13:29;5.40;;;2.33;;
11679;SDS011;5896;42.686;23.142;2024-01-15T10:15:55;3.20;;;1.50;;
11679;SDS011;5896;42.686;23.142;2024-01-15T10:18:21;0.45;;;0.45;;
11679;SDS011;5896;42.686;23.142;2024-01-15T10:20:46;2.90;;;1.38;;
11679;SDS011;5896;42.686;23.142;2024-01-15T10:23:13;4.60;;;1.63;;
11679;SDS011;5896;42.686;23.142;2024-01-15T10:25:41;2.83;;;0.57;;
11679;SDS011;5896;42.686;23.142;2024-01-15T10:28:07;0.82;;;0.30;;
11679;SDS011;5896;42.686;23.142;2024-01-15T10:30:33;3.03;;;1.40;;
11679;SDS011;5896;42.686;23.142;2024-01-15T10:32:59;2.70;;;1.20;;
11679;SDS011;5896;42.686;23.142;2024-01-15T10:35:27;4.00;;;2.15;;
11679;SDS011;5896;42.686;23.142;2024-01-15T10:37:56;4.95;;;1.67;;
11679;SDS011;5896;42.686;23.142;2024-01-15T10:40:21;3.70;;;1.60;;
11679;SDS011;5896;42.686;23.142;2024-01-15T10:42:47;5.53;;;2.42;;
11679;SDS011;5896;42.686;23.142;2024-01-15T10:45:13;3.45;;;1.42;;
11679;SDS011;5896;42.686;23.142;2024-01-15T10:47:39;5.15;;;1.42;;
11679;SDS011;5896;42.686;23.142;2024-01-15T10:50:06;1.42;;;0.57;;
11679;SDS011;5896;42.686;23.142;2024-01-15T10:52:35;2.08;;;1.00;;
11679;SDS011;5896;42.686;23.142;2024-01-15T10:55:06;3.72;;;1.35;;
11679;SDS011;5896;42.686;23.142;2024-01-15T10:57:34;3.47;;;1.00;;
11679;SDS011;5896;42.686;23.142;2024-01-15T11:00:00;2.92;;;0.80;;
11679;SDS011;5896;42.686;23.142;2024-01-15T11:02:28;2.70;;;1.20;;
11679;SDS011;5896;42.686;23.142;2024-01-15T11:04:53;2.67;;;1.08;;
11679;SDS011;5896;42.686;23.142;2024-01-15T11:07:21;3.25;;;0.90;;
11679;SDS011;5896;42.686;23.142;2024-01-15T11:09:49;0.43;;;0.30;;
11679;SDS011;5896;42.686;23.142;2024-01-15T11:12:15;3.35;;;0.80;;
11679;SDS011;5896;42.686;23.142;2024-01-15T11:14:46;2.88;;;1.13;;
11679;SDS011;5896;42.686;23.142;2024-01-15T11:17:13;4.80;;;1.85;;
11679;SDS011;5896;42.686;23.142;2024-01-15T11:19:46;2.40;;;0.80;;
11679;SDS011;5896;42.686;23.142;2024-01-15T11:24:56;5.93;;;1.58;;
11679;SDS011;5896;42.686;23.142;2024-01-15T11:27:42;1.65;;;0.65;;
11679;SDS011;5896;42.686;23.142;2024-01-15T11:30:08;1.80;;;0.98;;
11679;SDS011;5896;42.686;23.142;2024-01-15T11:32:38;1.60;;;0.90;;
11679;SDS011;5896;42.686;23.142;2024-01-15T11:35:07;1.45;;;0.40;;
11679;SDS011;5896;42.686;23.142;2024-01-15T11:40:23;11.88;;;4.28;;
11679;SDS011;5896;42.686;23.142;2024-01-15T11:43:02;5.55;;;1.67;;
11679;SDS011;5896;42.686;23.142;2024-01-15T11:45:29;1.98;;;0.40;;
11679;SDS011;5896;42.686;23.142;2024-01-15T11:50:30;2.53;;;1.10;;
11679;SDS011;5896;42.686;23.142;2024-01-15T11:52:59;2.20;;;1.13;;
11679;SDS011;5896;42.686;23.142;2024-01-15T11:55:27;1.35;;;0.77;;
11679;SDS011;5896;42.686;23.142;2024-01-15T11:57:56;0.17;;;0.17;;
11679;SDS011;5896;42.686;23.142;2024-01-15T12:00:23;1.90;;;1.23;;
11679;SDS011;5896;42.686;23.142;2024-01-15T12:02:49;1.73;;;0.60;;
11679;SDS011;5896;42.686;23.142;2024-01-15T12:05:16;6.25;;;2.25;;
11679;SDS011;5896;42.686;23.142;2024-01-15T12:07:44;1.75;;;1.02;;
11679;SDS011;5896;42.686;23.142;2024-01-15T12:10:10;3.00;;;1.10;;
11679;SDS011;5896;42.686;23.142;2024-01-15T12:15:34;4.68;;;2.00;;
11679;SDS011;5896;42.686;23.142;2024-01-15T12:18:00;5.18;;;1.58;;
11679;SDS011;5896;42.686;23.142;2024-01-15T12:20:30;3.95;;;1.35;;
11679;SDS011;5896;42.686;23.142;2024-01-15T12:22:56;5.75;;;0.77;;
11679;SDS011;5896;42.686;23.142;2024-01-15T12:25:22;2.47;;;1.15;;
11679;SDS011;5896;42.686;23.142;2024-01-15T12:27:48;3.42;;;1.30;;
11679;SDS011;5896;42.686;23.142;2024-01-15T12:30:14;7.38;;;1.30;;
11679;SDS011;5896;42.686;23.142;2024-01-15T12:32:43;2.83;;;1.08;;
11679;SDS011;5896;42.686;23.142;2024-01-15T12:35:09;1.45;;;0.52;;
11679;SDS011;5896;42.686;23.142;2024-01-15T12:37:36;2.58;;;0.65;;
11679;SDS011;5896;42.686;23.142;2024-01-15T12:40:02;0.63;;;0.32;;
11679;SDS011;5896;42.686;23.142;2024-01-15T12:42:31;4.72;;;1.50;;
11679;SDS011;5896;42.686;23.142;2024-01-15T12:44:57;4.63;;;1.80;;
11679;SDS011;5896;42.686;23.142;2024-01-15T12:47:22;2.78;;;1.25;;
11679;SDS011;5896;42.686;23.142;2024-01-15T12:49:47;3.55;;;0.70;;
11679;SDS011;5896;42.686;23.142;2024-01-15T12:52:18;4.18;;;1.65;;
11679;SDS011;5896;42.686;23.142;2024-01-15T12:54:44;2.80;;;1.20;;
11679;SDS011;5896;42.686;23.142;2024-01-15T12:57:10;3.42;;;1.70;;
11679;SDS011;5896;42.686;23.142;2024-01-15T12:59:35;1.25;;;0.45;;
11679;SDS011;5896;42.686;23.142;2024-01-15T13:02:01;1.63;;;0.85;;
11679;SDS011;5896;42.686;23.142;2024-01-15T13:04:26;2.25;;;0.90;;
11679;SDS011;5896;42.686;23.142;2024-01-15T13:06:52;2.38;;;1.10;;
11679;SDS011;5896;42.686;23.142;2024-01-15T13:09:18;1.08;;;0.38;;
11679;SDS011;5896;42.686;23.142;2024-01-15T13:11:44;2.92;;;1.25;;
11679;SDS011;5896;42.686;23.142;2024-01-15T13:14:10;1.13;;;0.30;;
11679;SDS011;5896;42.686;23.142;2024-01-15T13:16:35;3.08;;;1.48;;
11679;SDS011;5896;42.686;23.142;2024-01-15T13:19:01;2.38;;;0.80;;
11679;SDS011;5896;42.686;23.142;2024-01-15T13:21:28;1.30;;;0.50;;
11679;SDS011;5896;42.686;23.142;2024-01-15T13:23:54;4.07;;;1.00;;
11679;SDS011;5896;42.686;23.142;2024-01-15T13:26:20;1.75;;;0.40;;
11679;SDS011;5896;42.686;23.142;2024-01-15T13:28:45;1.70;;;0.85;;
11679;SDS011;5896;42.686;23.142;2024-01-15T13:31:11;2.55;;;0.80;;
11679;SDS011;5896;42.686;23.142;2024-01-15T13:33:36;2.35;;;0.60;;
11679;SDS011;5896;42.686;23.142;2024-01-15T13:36:02;1.85;;;0.65;;
11679;SDS011;5896;42.686;23.142;2024-01-15T13:38:28;1.15;;;0.63;;
11679;SDS011;5896;42.686;23.142;2024-01-15T13:40:59;2.35;;;1.13;;
11679;SDS011;5896;42.686;23.142;2024-01-15T13:43:25;2.60;;;0.80;;
11679;SDS011;5896;42.686;23.142;2024-01-15T13:45:52;2.08;;;0.47;;
11679;SDS011;5896;42.686;23.142;2024-01-15T13:48:19;1.70;;;0.80;;
11679;SDS011;5896;42.686;23.142;2024-01-15T13:50:44;1.27;;;0.40;;
11679;SDS011;5896;42.686;23.142;2024-01-15T13:53:09;2.63;;;0.80;;
11679;SDS011;5896;42.686;23.142;2024-01-15T13:55:35;2.83;;;1.65;;
11679;SDS011;5896;42.686;23.142;2024-01-15T13:58:00;2.97;;;1.73;;
11679;SDS011;5896;42.686;23.142;2024-01-15T14:00:26;4.25;;;2.75;;
11679;SDS011;5896;42.686;23.142;2024-01-15T14:02:51;2.42;;;1.00;;
11679;SDS011;5896;42.686;23.142;2024-01-15T14:05:16;3.10;;;0.88;;
11679;SDS011;5896;42.686;23.142;2024-01-15T14:07:42;1.90;;;0.25;;
11679;SDS011;5896;42.686;23.142;2024-01-15T14:10:08;0.57;;;0.35;;
11679;SDS011;5896;42.686;23.142;2024-01-15T14:12:35;3.60;;;1.95;;
11679;SDS011;5896;42.686;23.142;2024-01-15T14:15:01;1.65;;;0.57;;
11679;SDS011;5896;42.686;23.142;2024-01-15T14:17:28;5.03;;;1.90;;
11679;SDS011;5896;42.686;23.142;2024-01-15T14:19:53;5.75;;;1.35;;
11679;SDS011;5896;42.686;23.142;2024-01-15T14:22:19;9.18;;;0.85;;
11679;SDS011;5896;42.686;23.142;2024-01-15T14:24:44;2.28;;;1.52;;
11679;SDS011;5896;42.686;23.142;2024-01-15T14:27:09;1.42;;;0.73;;
11679;SDS011;5896;42.686;23.142;2024-01-15T14:29:35;5.30;;;1.50;;
11679;SDS011;5896;42.686;23.142;2024-01-15T14:32:01;2.88;;;0.70;;
11679;SDS011;5896;42.686;23.142;2024-01-15T14:34:26;4.30;;;1.63;;
11679;SDS011;5896;42.686;23.142;2024-01-15T14:36:52;0.93;;;0.43;;
11679;SDS011;5896;42.686;23.142;2024-01-15T14:39:24;1.63;;;1.00;;
11679;SDS011;5896;42.686;23.142;2024-01-15T14:41:50;4.70;;;1.80;;
11679;SDS011;5896;42.686;23.142;2024-01-15T14:44:16;0.65;;;0.35;;
11679;SDS011;5896;42.686;23.142;2024-01-15T14:46:41;3.30;;;1.20;;
11679;SDS011;5896;42.686;23.142;2024-01-15T14:49:07;6.88;;;2.30;;